Carman, Illinois
Current Conditions -  °F | °C
As of 12:53 AM on Sunday 26 Oct 2014 (Local Time) from KBRL Reporting Station
Clear Clear  
Wind Chill: 52°   Ceiling: Unl
Heat Index: 52°   Visibility: 10mi
Dew Point: 37°   Wind: 5mph
Humidity: 57%   Direction: 350°N
Pressure: 30.05"   Gusts: NA
Location:  40.74°N, 91.06°W
Report Text: KBRL 260553Z AUTO 35004KT 10SM CLR 11/03 A3005 RMK AO2 SLP174 T01110028 10172 20089 402390089 51002
Loading
Personal Weather Stations






























Interactive Weather Map
Tropical Storm Tracking
New forecast layout! Learn more

10-Day Weather Forecast

Advertisements
Track Severe Weather on mobile